Nordholz, Germany

8:57 PM CEST on July 10, 2014 (GMT +0200)
Cuxhaven (INORDHOL1) Elev 50 ft | 53.80 °N, 8.62 °E | Change Station

Current weather conditions updated 2 minutes ago

Partly Cloudy
Partly Cloudy
76.6 °F
Feels Like 78 °F
N
4.0
Wind Variable Wind from East
Gusts 11.0 mph

Tomorrow is forecast to be Much Cooler than today.

Today
High -- | Low -- °F
--% Chance of Precip.
Yesterday
High -- | Low -- °F
Precip. -- in
5:07 AM 9:53 PM
Waxing Gibbous, 96% visible
Pressure 29.83 in
Visibility 6.2 miles
Clouds Few 4800 ft
Heat Index 78 °F
Dew Point 59 °F
Humidity 54%
Rainfall 0.00 in
Snow Depth Not available.
UV 0.4 out of 12
Pollen Not available.
Air Quality Not available.
Flu Activity Not available.
METAR EDDW 101850Z 05010KT 9999 FEW048TCU 25/16 Q1010 NOSIG

More Conditions Fewer Conditions

Pressure 29.83 in
Visibility 6.2 miles
Clouds Few 4800 ft
Heat Index 78 °F
Dew Point 59 °F
Humidity 54%
Rainfall 0.00 in
Snow Depth Not available.
UV 0.4 out of 12
Pollen Not available.
Air Quality Not available.
Flu Activity Not available.
METAR EDDW 101850Z 05010KT 9999 FEW048TCU 25/16 Q1010 NOSIG

More Conditions Fewer Conditions

10-Day Weather Forecast

Almanac

Astronomy

Jul. 10, 2014 Rise Set
Actual Time 5:07 AM CEST 9:53 PM CEST
Civil Twilight 4:16 AM CEST 10:43 PM CEST
Nautical Twilight 2:51 AM CEST 12:07 AM CEST
Astronomical Twilight Sun does not rise Sun does not rise
Moon 7:39 PM CEST 3:15 AM CEST
Length of Visible Light 18h 27m
Length of Day
16h 45m
Tomorrow will be 2m 5s shorter.
Waxing Gibbous, 96% of the Moon is Illuminated
Today
Waxing Gibbous
Jul 12
Full
Jul 18
Last Quarter
Jul 26
New
Aug 3
First Quarter

Today's Extremes

Country Highs Country Lows

Community

WunderPhotos

Upload Photos

1,732,223 photos uploaded!

Nearby

Snow Depth

Not available.

Earthquake Activity

City Distance Mag. Time & Date
No recent earthquake activity has been reported nearby.
Minimum magnitude displayed is 2.5.

Coastal Water Temperatures

Place Temperature
No Stations Reporting

Nearby Weather Stations

Station Location Temp. Heat Index Dew Point Humidity Wind Precip. Elev Updated Type
Cuxhaven, Oxstedt 76.6 °F 78 °F 59 °F 54% East  at  4.0 mph 0.00 in / hr 50 ft 8:55 PM CEST Normal
Cuxhaven, Cuxhaven 78.8 °F 80 °F 63 °F 59% ENE  at  13.7 mph 0.00 in / hr 6 ft 8:00 PM CEST Normal
Nordsee, Friedrichskoog 69.6 °F - 55 °F 59% NE  at  7.6 mph 0.00 in / hr 0 ft 8:57 PM CEST Rapid Fire
Armstorf/ Dornsode 74.0 °F 76 °F 64 °F 72% NE  at  0.0 mph 0.00 in / hr 20 ft 8:45 PM CEST Normal
Sprantewetter, Brunsbuettel 74.5 °F 77 °F 61 °F 63% NE  at  2.0 mph 0.00 in / hr 6 ft 8:47 PM CEST Normal

Show More Stations Show Fewer Stations